createdAt,value
2019-04-25T00:01:36.523Z,100821.98
2019-04-25T00:04:09.216Z,100825.21
2019-04-25T00:06:42.878Z,100827.84
2019-04-25T00:09:17.082Z,100826.72
2019-04-25T00:11:49.051Z,100817.10
2019-04-25T00:14:22.513Z,100819.70
2019-04-25T00:16:54.866Z,100818.09
2019-04-25T00:19:26.910Z,100818.66
2019-04-25T00:22:03.567Z,100816.59
2019-04-25T00:24:49.484Z,100825.79
2019-04-25T00:27:23.770Z,100830.22
2019-04-25T00:29:56.598Z,100834.13
2019-04-25T00:32:28.610Z,100834.21
2019-04-25T00:35:01.905Z,100839.93
2019-04-25T00:37:34.583Z,100851.95
2019-04-25T00:40:08.818Z,100842.88
2019-04-25T00:42:42.780Z,100843.40
2019-04-25T00:45:14.551Z,100859.70
2019-04-25T00:47:46.508Z,100884.33
2019-04-25T00:50:18.472Z,100891.41
2019-04-25T00:52:52.201Z,100890.30
2019-04-25T00:55:28.533Z,100892.20
2019-04-25T00:58:03.386Z,100891.89
2019-04-25T01:00:54.272Z,100889.83
2019-04-25T01:03:31.721Z,100891.56
2019-04-25T01:06:03.959Z,100895.22
2019-04-25T01:08:36.258Z,100890.84
2019-04-25T01:11:08.203Z,100896.50
2019-04-25T01:13:40.337Z,100888.83
2019-04-25T01:16:12.289Z,100883.78
2019-04-25T01:18:45.315Z,100882.38
2019-04-25T01:21:17.827Z,100890.17
2019-04-25T01:23:49.798Z,100881.88
2019-04-25T01:26:21.805Z,100882.05
2019-04-25T01:28:54.879Z,100881.80
2019-04-25T01:31:29.125Z,100886.26
2019-04-25T01:34:01.082Z,100891.88
2019-04-25T01:36:50.747Z,100889.77
2019-04-25T01:39:27.159Z,100897.92
2019-04-25T01:42:17.024Z,100892.53
2019-04-25T01:44:51.505Z,100882.89
2019-04-25T01:47:24.026Z,100887.50
2019-04-25T01:49:56.709Z,100904.24
2019-04-25T01:52:29.311Z,100909.42
2019-04-25T01:55:01.333Z,100905.48
2019-04-25T01:57:33.767Z,100901.08
2019-04-25T02:00:08.187Z,100908.56
2019-04-25T02:02:40.444Z,100905.91
2019-04-25T02:05:13.886Z,100902.61
2019-04-25T02:07:46.207Z,100912.66
2019-04-25T02:10:18.339Z,100911.78
2019-04-25T02:12:55.610Z,100913.94
2019-04-25T02:15:29.944Z,100922.92
2019-04-25T02:18:03.685Z,100933.50
2019-04-25T02:20:35.880Z,100927.84
2019-04-25T02:23:07.838Z,100924.26
2019-04-25T02:25:39.889Z,100918.02
2019-04-25T02:28:15.516Z,100907.89
2019-04-25T02:30:45.837Z,100896.91
2019-04-25T02:33:18.144Z,100904.20
2019-04-25T02:35:50.132Z,100891.53
2019-04-25T02:38:24.100Z,100870.59
2019-04-25T02:40:57.726Z,100890.08
2019-04-25T02:43:29.503Z,100881.39
2019-04-25T02:46:12.157Z,100865.22
2019-04-25T02:49:04.137Z,100859.53
2019-04-25T02:51:37.241Z,100856.38
2019-04-25T02:54:09.232Z,100868.12
2019-04-25T02:56:41.170Z,100857.37
2019-04-25T02:59:14.912Z,100878.48
2019-04-25T03:01:47.195Z,100881.91
2019-04-25T03:04:19.148Z,100891.01
2019-04-25T03:06:51.219Z,100906.41
2019-04-25T03:09:24.995Z,100901.20
2019-04-25T03:11:58.326Z,100901.02
2019-04-25T03:14:30.520Z,100923.16
2019-04-25T03:17:05.114Z,100924.68
2019-04-25T03:19:43.817Z,100914.08
2019-04-25T03:22:16.883Z,100921.64
2019-04-25T03:24:49.412Z,100909.98
2019-04-25T03:27:21.383Z,100919.28
2019-04-25T03:29:54.167Z,100923.08
2019-04-25T03:32:28.411Z,100930.55
2019-04-25T03:35:01.221Z,100925.72
2019-04-25T03:37:35.169Z,100929.15
2019-04-25T03:40:08.364Z,100927.97
2019-04-25T03:42:40.604Z,100941.58
2019-04-25T03:45:14.040Z,100950.88
2019-04-25T03:47:47.244Z,100963.71
2019-04-25T03:50:19.211Z,100963.57
2019-04-25T03:52:51.147Z,100972.73
2019-04-25T03:55:24.074Z,100973.88
2019-04-25T03:57:56.154Z,100965.61
2019-04-25T04:00:28.135Z,100980.84
2019-04-25T04:03:00.357Z,100976.71
2019-04-25T04:05:32.307Z,100984.28
2019-04-25T04:08:05.603Z,100982.01
2019-04-25T04:10:38.306Z,100983.94
2019-04-25T04:13:10.280Z,100983.15
2019-04-25T04:15:43.358Z,100978.77
2019-04-25T04:18:17.420Z,100996.02
2019-04-25T04:20:56.625Z,101011.28
2019-04-25T04:23:36.321Z,101011.86
2019-04-25T04:26:09.500Z,101016.23
2019-04-25T04:28:41.574Z,101022.83
2019-04-25T04:31:14.332Z,101023.78
2019-04-25T04:33:47.691Z,101022.24
2019-04-25T04:36:19.658Z,101029.59
2019-04-25T04:38:52.009Z,101027.73
2019-04-25T04:41:24.051Z,101028.20
2019-04-25T04:43:56.014Z,101026.66
2019-04-25T04:46:27.988Z,101030.36
2019-04-25T04:48:59.951Z,101037.18
2019-04-25T04:51:33.569Z,101028.24
2019-04-25T04:54:05.803Z,101028.52
2019-04-25T04:56:37.768Z,101049.78
2019-04-25T04:59:10.854Z,101055.41
2019-04-25T05:01:56.676Z,101056.02
2019-04-25T05:04:46.714Z,101052.58
2019-04-25T05:07:36.880Z,101058.23
2019-04-25T05:10:09.259Z,101053.11
2019-04-25T05:12:41.230Z,101057.60
2019-04-25T05:15:15.313Z,101058.67
2019-04-25T05:17:47.695Z,101071.59
2019-04-25T05:20:20.136Z,101072.92
2019-04-25T05:22:54.591Z,101068.55
2019-04-25T05:25:26.170Z,101077.37
2019-04-25T05:28:02.934Z,101086.38
2019-04-25T05:30:33.975Z,101096.62
2019-04-25T05:33:05.945Z,101098.61
2019-04-25T05:35:37.920Z,101101.98
2019-04-25T05:38:09.861Z,101107.42
2019-04-25T05:40:49.218Z,101108.04
2019-04-25T05:43:21.434Z,101105.11
2019-04-25T05:45:54.137Z,101111.81
2019-04-25T05:48:26.402Z,101114.07
2019-04-25T05:50:58.421Z,101128.15
2019-04-25T05:53:30.377Z,101139.59
2019-04-25T05:56:04.047Z,101139.27
2019-04-25T05:58:36.354Z,101145.09
2019-04-25T06:01:08.326Z,101144.60
2019-04-25T06:03:40.283Z,101152.75
2019-04-25T06:06:13.420Z,101161.97
2019-04-25T06:08:47.100Z,101160.86
2019-04-25T06:11:26.752Z,101165.53
2019-04-25T06:14:00.616Z,101165.08
2019-04-25T06:16:33.497Z,101168.63
2019-04-25T06:19:13.998Z,101180.51
2019-04-25T06:21:43.393Z,101190.30
2019-04-25T06:24:27.347Z,101195.20
2019-04-25T06:27:16.148Z,101194.93
2019-04-25T06:29:58.163Z,101194.68
2019-04-25T06:32:24.927Z,101198.78
2019-04-25T06:34:57.577Z,101198.97
2019-04-25T06:37:29.590Z,101200.44
2019-04-25T06:40:03.460Z,101206.29
2019-04-25T06:42:36.165Z,101203.80
2019-04-25T06:45:17.209Z,101205.45
2019-04-25T06:48:07.302Z,101203.66
2019-04-25T06:50:39.269Z,101208.52
2019-04-25T06:53:11.209Z,101211.59
2019-04-25T06:55:44.903Z,101205.43
2019-04-25T06:58:17.349Z,101207.45
2019-04-25T07:00:58.148Z,101216.23
2019-04-25T07:03:24.871Z,101222.97
2019-04-25T07:05:56.765Z,101225.72
2019-04-25T07:08:29.127Z,101220.67
2019-04-25T07:11:01.279Z,101230.31
2019-04-25T07:13:35.727Z,101238.31
2019-04-25T07:16:06.884Z,101233.06
2019-04-25T07:18:38.888Z,101235.81
2019-04-25T07:21:10.858Z,101249.34
2019-04-25T07:23:43.227Z,101251.83
2019-04-25T07:26:18.602Z,101244.50
2019-04-25T07:28:58.079Z,101252.88
2019-04-25T07:31:33.144Z,101260.08
2019-04-25T07:34:07.336Z,101262.17
2019-04-25T07:36:39.296Z,101263.22
2019-04-25T07:39:13.318Z,101259.33
2019-04-25T07:41:45.512Z,101260.39
2019-04-25T07:44:17.804Z,101264.58
2019-04-25T07:46:49.808Z,101267.92
2019-04-25T07:49:23.479Z,101272.30
2019-04-25T07:51:55.740Z,101278.73
2019-04-25T07:54:28.813Z,101275.11
2019-04-25T07:57:00.947Z,101272.16
2019-04-25T07:59:34.965Z,101276.88
2019-04-25T08:02:07.173Z,101273.41
2019-04-25T08:04:39.250Z,101273.50
2019-04-25T08:07:11.629Z,101267.97
2019-04-25T08:09:44.270Z,101261.51
2019-04-25T08:12:16.594Z,101263.41
2019-04-25T08:14:54.207Z,101272.83
2019-04-25T08:17:46.895Z,101270.73
2019-04-25T08:20:19.469Z,101271.56
2019-04-25T08:22:57.121Z,101268.89
2019-04-25T08:25:25.607Z,101272.81
2019-04-25T08:27:57.816Z,101279.47
2019-04-25T08:30:30.036Z,101286.75
2019-04-25T08:33:01.976Z,101283.74
2019-04-25T08:35:35.493Z,101278.58
2019-04-25T08:38:07.947Z,101279.81
2019-04-25T08:40:40.429Z,101262.51
2019-04-25T08:43:12.499Z,101286.07
2019-04-25T08:45:44.442Z,101284.42
2019-04-25T08:48:16.385Z,101291.32
2019-04-25T08:51:05.519Z,101286.13
2019-04-25T08:53:45.147Z,101289.75
2019-04-25T08:56:19.047Z,101290.14
2019-04-25T08:59:03.643Z,101289.75
2019-04-25T09:01:36.496Z,101296.31
2019-04-25T09:04:17.521Z,101300.17
2019-04-25T09:06:49.454Z,101306.21
2019-04-25T09:09:21.474Z,101306.56
2019-04-25T09:11:54.419Z,101310.63
2019-04-25T09:14:26.521Z,101322.67
2019-04-25T09:16:58.469Z,101321.48
2019-04-25T09:19:30.763Z,101327.88
2019-04-25T09:22:03.285Z,101331.87
2019-04-25T09:24:36.836Z,101319.31
2019-04-25T09:27:09.000Z,101322.36
2019-04-25T09:29:40.955Z,101326.00
2019-04-25T09:32:13.787Z,101326.58
2019-04-25T09:34:45.966Z,101332.32
2019-04-25T09:37:17.953Z,101326.05
2019-04-25T09:39:57.217Z,101332.67
2019-04-25T09:42:29.416Z,101331.33
2019-04-25T09:45:06.259Z,101329.50
2019-04-25T09:47:39.867Z,101333.55
2019-04-25T09:50:33.865Z,101331.49
2019-04-25T09:53:04.537Z,101327.06
2019-04-25T09:55:54.351Z,101337.03
2019-04-25T09:58:36.813Z,101336.87
2019-04-25T10:01:14.087Z,101341.52
2019-04-25T10:03:46.209Z,101336.31
2019-04-25T10:06:19.673Z,101334.04
2019-04-25T10:08:51.930Z,101327.24
2019-04-25T10:11:28.647Z,101319.47
2019-04-25T10:14:27.922Z,101320.02
2019-04-25T10:17:03.797Z,101318.77
2019-04-25T10:19:41.170Z,101320.50
2019-04-25T10:22:16.464Z,101314.53
2019-04-25T10:25:00.197Z,101320.39
2019-04-25T10:27:30.437Z,101314.66
2019-04-25T10:30:16.849Z,101307.58
2019-04-25T10:32:57.736Z,101305.15
2019-04-25T10:35:30.326Z,101308.23
2019-04-25T10:38:13.890Z,101306.00
2019-04-25T10:40:53.519Z,101304.13
2019-04-25T10:43:25.567Z,101302.38
2019-04-25T10:45:57.667Z,101314.51
2019-04-25T10:48:29.935Z,101311.11
2019-04-25T10:51:04.016Z,101313.31
2019-04-25T10:53:35.579Z,101322.42
2019-04-25T10:56:08.730Z,101323.95
2019-04-25T10:58:41.537Z,101325.27
2019-04-25T11:01:15.290Z,101332.73
2019-04-25T11:03:49.018Z,101306.68
2019-04-25T11:06:24.680Z,101339.16
2019-04-25T11:08:56.688Z,101335.58
2019-04-25T11:11:29.657Z,101327.24
2019-04-25T11:14:03.355Z,101327.33
2019-04-25T11:16:35.740Z,101330.71
2019-04-25T11:19:07.757Z,101331.94
2019-04-25T11:21:39.693Z,101334.87
2019-04-25T11:24:11.978Z,101325.94
2019-04-25T11:26:47.153Z,101329.81
2019-04-25T11:29:19.665Z,101332.48
2019-04-25T11:31:51.772Z,101329.45
2019-04-25T11:34:24.550Z,101336.35
2019-04-25T11:36:57.638Z,101331.93
2019-04-25T11:39:45.055Z,101328.73
2019-04-25T11:42:17.295Z,101330.34
2019-04-25T11:44:49.753Z,101333.52
2019-04-25T11:47:21.993Z,101336.96
2019-04-25T11:49:54.609Z,101340.64
2019-04-25T11:52:30.248Z,101334.02
2019-04-25T11:55:02.090Z,101336.80
2019-04-25T11:57:34.041Z,101336.85
2019-04-25T12:00:21.623Z,101335.72
2019-04-25T12:02:44.044Z,101340.14
2019-04-25T12:05:17.479Z,101340.71
2019-04-25T12:07:50.040Z,101339.66
2019-04-25T12:10:24.222Z,101346.11
2019-04-25T12:12:56.335Z,101340.91
2019-04-25T12:15:28.539Z,101339.17
2019-04-25T12:18:00.735Z,101347.38
2019-04-25T12:20:34.058Z,101350.44
2019-04-25T12:23:10.414Z,101344.72
2019-04-25T12:25:39.994Z,101339.98
2019-04-25T12:28:14.037Z,101339.16
2019-04-25T12:30:47.699Z,101340.66
2019-04-25T12:33:21.584Z,101337.88
2019-04-25T12:35:54.244Z,101342.20
2019-04-25T12:38:27.569Z,101344.05
2019-04-25T12:40:59.527Z,101342.62
2019-04-25T12:43:33.907Z,101335.49
2019-04-25T12:46:08.207Z,101332.56
2019-04-25T12:48:43.183Z,101328.58
2019-04-25T12:51:15.283Z,101318.09
2019-04-25T12:53:47.986Z,101310.73
2019-04-25T12:56:20.426Z,101316.53
2019-04-25T12:58:53.837Z,101309.84
2019-04-25T13:01:26.342Z,101322.47
2019-04-25T13:03:58.858Z,101315.43
2019-04-25T13:06:33.821Z,101312.58
2019-04-25T13:09:07.445Z,101313.38
2019-04-25T13:11:39.442Z,101319.36
2019-04-25T13:14:11.667Z,101326.62
2019-04-25T13:16:44.303Z,101324.17
2019-04-25T13:19:23.403Z,101327.54
2019-04-25T13:21:50.713Z,101331.09
2019-04-25T13:24:22.640Z,101331.56
2019-04-25T13:27:03.498Z,101324.45
2019-04-25T13:29:37.054Z,101320.21
2019-04-25T13:32:23.456Z,101321.48
2019-04-25T13:35:04.843Z,101329.66
2019-04-25T13:37:39.950Z,101321.31
2019-04-25T13:40:26.179Z,101327.72
2019-04-25T13:43:02.870Z,101329.11
2019-04-25T13:45:41.386Z,101326.91
2019-04-25T13:48:20.753Z,101322.83
2019-04-25T13:50:55.974Z,101314.39
2019-04-25T13:53:31.639Z,101307.34
2019-04-25T13:56:07.299Z,101305.58
2019-04-25T13:58:56.869Z,101304.28
2019-04-25T14:01:35.179Z,101306.12
2019-04-25T14:04:10.445Z,101269.77
2019-04-25T14:06:46.154Z,101310.47
2019-04-25T14:09:48.655Z,101312.16
2019-04-25T14:12:11.815Z,101311.45
2019-04-25T14:14:54.039Z,101315.33
2019-04-25T14:17:31.103Z,101312.13
2019-04-25T14:20:15.860Z,101315.88
2019-04-25T14:22:54.360Z,101317.13
2019-04-25T14:25:35.237Z,101304.95
2019-04-25T14:28:15.522Z,101306.77
2019-04-25T14:30:52.406Z,101290.86
2019-04-25T14:33:25.393Z,101305.86
2019-04-25T14:35:58.075Z,101309.66
2019-04-25T14:38:30.045Z,101309.52
2019-04-25T14:41:02.323Z,101310.05
2019-04-25T14:43:34.532Z,101312.85
2019-04-25T14:46:06.507Z,101305.30
2019-04-25T14:48:39.253Z,101301.41
2019-04-25T14:51:11.195Z,101301.26
2019-04-25T14:53:44.960Z,101306.47
2019-04-25T14:56:25.882Z,101307.98
2019-04-25T14:58:58.227Z,101307.98
2019-04-25T15:01:30.280Z,101310.01
2019-04-25T15:04:02.219Z,101306.00
2019-04-25T15:06:34.720Z,101304.16
2019-04-25T15:09:08.116Z,101303.75
2019-04-25T15:11:40.075Z,101316.69
2019-04-25T15:14:12.088Z,101312.78
2019-04-25T15:16:44.031Z,101308.63
2019-04-25T15:19:16.119Z,101310.26
2019-04-25T15:21:48.156Z,101312.92
2019-04-25T15:24:20.135Z,101315.64
2019-04-25T15:26:52.886Z,101311.89
2019-04-25T15:29:25.519Z,101311.59
2019-04-25T15:31:58.545Z,101313.47
2019-04-25T15:34:32.118Z,101309.58
2019-04-25T15:37:11.410Z,101311.61
2019-04-25T15:39:45.246Z,101306.55
2019-04-25T15:42:18.860Z,101309.61
2019-04-25T15:45:08.722Z,101307.95
2019-04-25T15:47:40.741Z,101312.83
2019-04-25T15:50:13.243Z,101305.48
2019-04-25T15:52:45.460Z,101262.88
2019-04-25T15:55:17.581Z,101309.16
2019-04-25T15:57:49.904Z,101306.39
2019-04-25T16:00:32.839Z,101306.11
2019-04-25T16:03:05.367Z,101302.97
2019-04-25T16:05:38.326Z,101303.02
2019-04-25T16:08:10.384Z,101303.16
2019-04-25T16:10:42.569Z,101301.47
2019-04-25T16:13:15.428Z,101305.06
2019-04-25T16:15:47.692Z,101296.99
2019-04-25T16:18:19.973Z,101291.28
2019-04-25T16:20:52.053Z,101293.61
2019-04-25T16:23:24.278Z,101290.14
2019-04-25T16:25:56.265Z,101290.66
2019-04-25T16:28:28.826Z,101284.13
2019-04-25T16:31:00.890Z,101285.86
2019-04-25T16:33:33.247Z,101285.70
2019-04-25T16:36:05.651Z,101274.98
2019-04-25T16:38:37.605Z,101271.78
2019-04-25T16:41:09.563Z,101276.05
2019-04-25T16:43:43.487Z,101268.78
2019-04-25T16:46:16.210Z,101269.88
2019-04-25T16:48:48.146Z,101269.19
2019-04-25T16:51:20.113Z,101266.52
2019-04-25T16:53:52.043Z,101265.30
2019-04-25T16:56:24.343Z,101265.20
2019-04-25T16:58:56.280Z,101263.97
2019-04-25T17:01:30.213Z,101265.52
2019-04-25T17:04:02.814Z,101262.73
2019-04-25T17:06:35.935Z,101269.41
2019-04-25T17:09:08.573Z,101274.99
2019-04-25T17:11:41.762Z,101285.39
2019-04-25T17:14:24.481Z,101281.09
2019-04-25T17:16:58.196Z,101279.12
2019-04-25T17:19:43.761Z,101282.72
2019-04-25T17:22:15.867Z,101288.51
2019-04-25T17:24:48.188Z,101288.08
2019-04-25T17:27:21.071Z,101288.00
2019-04-25T17:29:53.024Z,101292.86
2019-04-25T17:32:48.485Z,101299.28
2019-04-25T17:35:12.757Z,101299.64
2019-04-25T17:37:52.499Z,101302.98
2019-04-25T17:40:26.070Z,101311.13
2019-04-25T17:43:10.250Z,101306.67
2019-04-25T17:45:33.482Z,101311.95
2019-04-25T17:48:05.866Z,101313.84
2019-04-25T17:50:38.317Z,101313.38
2019-04-25T17:53:10.695Z,101311.62
2019-04-25T17:55:43.656Z,101314.72
2019-04-25T17:58:16.089Z,101313.74
2019-04-25T18:00:48.688Z,101319.77
2019-04-25T18:03:20.929Z,101315.70
2019-04-25T18:05:52.878Z,101317.27
2019-04-25T18:08:25.215Z,101322.41
2019-04-25T18:10:57.155Z,101319.64
2019-04-25T18:13:29.100Z,101319.09
2019-04-25T18:16:21.004Z,101325.70
2019-04-25T18:19:00.866Z,101326.20
2019-04-25T18:21:34.254Z,101329.16
2019-04-25T18:24:09.011Z,101334.69
2019-04-25T18:26:43.463Z,101337.84
2019-04-25T18:29:17.519Z,101339.19
2019-04-25T18:31:49.764Z,101340.54
2019-04-25T18:34:26.032Z,101346.70
2019-04-25T18:37:14.885Z,101348.40
2019-04-25T18:39:51.205Z,101352.73
2019-04-25T18:42:24.799Z,101353.70
2019-04-25T18:44:56.754Z,101357.50
2019-04-25T18:47:28.726Z,101358.70
2019-04-25T18:50:00.994Z,101359.86
2019-04-25T18:52:47.133Z,101362.46
2019-04-25T18:55:33.291Z,101364.28
2019-04-25T18:58:19.393Z,101365.48
2019-04-25T19:01:08.244Z,101366.45
2019-04-25T19:03:53.807Z,101361.30
2019-04-25T19:06:27.783Z,101367.47
2019-04-25T19:09:00.119Z,101361.31
2019-04-25T19:11:32.729Z,101366.03
2019-04-25T19:14:04.765Z,101357.98
2019-04-25T19:16:36.731Z,101353.07
2019-04-25T19:19:08.955Z,101361.88
2019-04-25T19:21:41.622Z,101348.14
2019-04-25T19:24:13.713Z,101348.52
2019-04-25T19:26:46.147Z,101348.44
2019-04-25T19:29:18.131Z,101354.12
2019-04-25T19:31:52.039Z,101353.41
2019-04-25T19:34:23.753Z,101353.09
2019-04-25T19:36:55.728Z,101355.13
2019-04-25T19:39:29.398Z,101348.52
2019-04-25T19:42:14.790Z,101355.14
2019-04-25T19:44:47.173Z,101360.73
2019-04-25T19:47:20.787Z,101356.09
2019-04-25T19:49:53.146Z,101357.96
2019-04-25T19:52:25.110Z,101352.27
2019-04-25T19:54:57.059Z,101358.71
2019-04-25T19:57:29.019Z,101358.01
2019-04-25T20:00:00.961Z,101362.67
2019-04-25T20:02:34.635Z,101372.64
2019-04-25T20:05:28.074Z,101370.17
2019-04-25T20:08:01.723Z,101371.19
2019-04-25T20:10:35.308Z,101367.43
2019-04-25T20:13:07.272Z,101368.70
2019-04-25T20:15:39.510Z,101366.34
2019-04-25T20:18:11.479Z,101367.95
2019-04-25T20:20:44.596Z,101372.58
2019-04-25T20:23:19.751Z,101369.72
2019-04-25T20:25:52.747Z,101370.42
2019-04-25T20:28:25.167Z,101370.80
2019-04-25T20:30:57.442Z,101369.11
2019-04-25T20:33:29.401Z,101364.00
2019-04-25T20:36:01.669Z,101361.45
2019-04-25T20:38:33.615Z,101361.60
2019-04-25T20:41:05.804Z,101355.33
2019-04-25T20:43:37.953Z,101354.39
2019-04-25T20:46:10.358Z,101349.02
2019-04-25T20:48:42.614Z,101350.27
2019-04-25T20:51:14.571Z,101351.97
2019-04-25T20:53:47.498Z,101356.77
2019-04-25T20:56:19.858Z,101357.11
2019-04-25T20:58:52.113Z,101357.31
2019-04-25T21:01:24.090Z,101358.30
2019-04-25T21:03:56.218Z,101351.23
2019-04-25T21:06:32.335Z,101355.06
2019-04-25T21:09:06.325Z,101352.94
2019-04-25T21:11:38.273Z,101352.90
2019-04-25T21:14:12.197Z,101361.18
2019-04-25T21:16:45.801Z,101360.16
2019-04-25T21:19:35.510Z,101358.32
2019-04-25T21:22:07.464Z,101362.97
2019-04-25T21:24:39.456Z,101361.77
2019-04-25T21:27:11.782Z,101358.48
2019-04-25T21:29:44.154Z,101356.46
2019-04-25T21:32:17.743Z,101353.23
2019-04-25T21:34:51.706Z,101352.92
2019-04-25T21:37:26.063Z,101355.15
2019-04-25T21:40:02.952Z,101353.45
2019-04-25T21:42:48.521Z,101349.97
2019-04-25T21:45:21.227Z,101339.61
2019-04-25T21:47:54.731Z,101339.85
2019-04-25T21:50:27.204Z,101339.57
2019-04-25T21:52:59.643Z,101336.12
2019-04-25T21:55:32.460Z,101340.85
2019-04-25T21:58:05.277Z,101337.63
2019-04-25T22:00:58.169Z,101334.41
2019-04-25T22:03:30.655Z,101332.64
2019-04-25T22:06:03.553Z,101332.75
2019-04-25T22:08:36.036Z,101335.86
2019-04-25T22:11:07.997Z,101334.13
2019-04-25T22:13:40.339Z,101335.88
2019-04-25T22:16:12.689Z,101333.64
2019-04-25T22:18:44.755Z,101336.55
2019-04-25T22:21:17.000Z,101329.61
2019-04-25T22:23:49.313Z,101332.14
2019-04-25T22:26:21.287Z,101326.16
2019-04-25T22:28:53.531Z,101324.02
2019-04-25T22:31:33.192Z,101325.50
2019-04-25T22:34:15.940Z,101323.62
2019-04-25T22:36:48.197Z,101331.27
2019-04-25T22:39:20.797Z,101321.81
2019-04-25T22:41:53.026Z,101322.56
2019-04-25T22:44:25.476Z,101323.60
2019-04-25T22:46:57.678Z,101325.06
2019-04-25T22:49:29.699Z,101319.99
2019-04-25T22:52:02.222Z,101317.31
2019-04-25T22:54:35.447Z,101317.19
2019-04-25T22:57:08.440Z,101317.97
2019-04-25T22:59:40.750Z,101310.86
2019-04-25T23:02:16.944Z,101316.02
2019-04-25T23:04:50.898Z,101314.63
2019-04-25T23:07:22.848Z,101314.16
2019-04-25T23:09:55.259Z,101308.84
2019-04-25T23:12:27.484Z,101306.28
2019-04-25T23:14:59.451Z,101306.20
2019-04-25T23:17:31.410Z,101300.02
2019-04-25T23:20:05.632Z,101302.33
2019-04-25T23:22:37.710Z,101299.84
2019-04-25T23:25:12.328Z,101293.81
2019-04-25T23:27:45.931Z,101292.95
2019-04-25T23:30:19.987Z,101297.30
2019-04-25T23:32:51.945Z,101297.79
2019-04-25T23:35:29.963Z,101299.37
2019-04-25T23:37:57.558Z,101295.04
2019-04-25T23:40:29.502Z,101298.72
2019-04-25T23:43:01.550Z,101291.75
2019-04-25T23:45:33.570Z,101291.75
2019-04-25T23:48:06.090Z,101292.38
2019-04-25T23:50:39.333Z,101292.02
2019-04-25T23:53:11.305Z,101289.21
2019-04-25T23:55:43.631Z,101286.82
2019-04-25T23:58:15.641Z,101282.16
